Time;durP1;ratioP1;P1;durP2;ratioP2;P2;SDS_P1;SDS_P2;PMS_P1;PMS_P2;Temp;Humidity;BMP_temperature;BMP_pressure;BME280_temperature;BME280_humidity;BME280_pressure;Samples;Min_cycle;Max_cycle;Signal;HPM_P1;HPM_P2
2022/08/09 00:02:48;;;;;;;2.35;2.00;;;;;;;18.27;67.51;102704.19;6008858;29;20235;-70
2022/08/09 00:06:09;;;;;;;2.92;2.67;;;;;;;18.28;67.74;102700.47;6012093;29;20242;-72
2022/08/09 00:09:30;;;;;;;2.63;1.90;;;;;;;18.20;67.35;102702.19;6008415;29;20234;-71
2022/08/09 00:12:51;;;;;;;2.60;2.20;;;;;;;18.14;67.80;102703.63;6008030;29;20234;-71
2022/08/09 00:16:13;;;;;;;2.47;2.28;;;;;;;18.09;67.58;102705.03;6006730;29;20242;-70
2022/08/09 00:19:34;;;;;;;3.17;2.20;;;;;;;18.14;67.85;102708.22;6006955;29;20242;-70
2022/08/09 00:22:56;;;;;;;3.25;2.08;;;;;;;18.09;67.81;102713.22;6005577;29;20522;-71
2022/08/09 00:26:16;;;;;;;2.60;2.20;;;;;;;18.12;67.71;102715.66;6008660;29;20251;-70
2022/08/09 00:29:38;;;;;;;2.15;1.90;;;;;;;17.99;67.44;102705.00;6004821;29;20262;-70
2022/08/09 00:33:00;;;;;;;2.17;1.67;;;;;;;18.05;67.48;102712.63;6006115;29;20288;-70
2022/08/09 00:36:22;;;;;;;1.70;1.60;;;;;;;18.03;67.78;102711.91;6009457;29;20253;-72
2022/08/09 00:39:43;;;;;;;1.67;1.58;;;;;;;17.94;67.72;102720.94;6015686;29;20953;-70
2022/08/09 00:43:05;;;;;;;3.88;2.90;;;;;;;17.86;68.43;102722.63;6010070;29;20235;-70
2022/08/09 00:46:26;;;;;;;4.28;3.88;;;;;;;17.77;68.63;102723.47;6015954;29;20341;-71
2022/08/09 00:49:48;;;;;;;2.78;2.55;;;;;;;17.77;68.70;102726.19;6011252;29;20246;-71
2022/08/09 00:53:11;;;;;;;2.67;2.38;;;;;;;17.79;68.77;102721.47;6018343;29;20517;-71
2022/08/09 00:56:32;;;;;;;1.85;1.60;;;;;;;17.77;68.74;102724.34;6015558;29;20239;-68
2022/08/09 00:59:53;;;;;;;2.10;2.00;;;;;;;17.74;68.07;102721.00;6012359;29;20230;-70
2022/08/09 01:03:22;;;;;;;5.25;2.53;;;;;;;17.56;69.07;102713.44;6013528;29;20246;-70
2022/08/09 01:06:52;;;;;;;3.78;2.58;;;;;;;17.58;69.28;102716.91;6011375;29;20234;-70
2022/08/09 01:10:23;;;;;;;4.68;2.67;;;;;;;17.55;69.19;102721.78;6012320;29;20330;-70
2022/08/09 01:13:50;;;;;;;1.83;1.60;;;;;;;17.56;68.98;102715.34;6014383;29;20230;-70
2022/08/09 01:17:18;;;;;;;1.75;1.65;;;;;;;17.47;68.99;102724.28;6005584;29;20267;-70
2022/08/09 01:20:45;;;;;;;1.88;1.67;;;;;;;17.46;69.16;102711.63;6010420;29;20321;-71
2022/08/09 01:24:16;;;;;;;2.58;2.13;;;;;;;17.45;69.67;102727.16;6008474;29;20243;-70
2022/08/09 01:27:40;;;;;;;1.60;1.50;;;;;;;17.42;69.36;102713.78;6000342;29;20230;-70
2022/08/09 01:31:05;;;;;;;2.55;2.35;;;;;;;17.37;70.16;102716.06;6012031;29;20424;-70
2022/08/09 01:34:28;;;;;;;2.33;2.20;;;;;;;17.41;70.21;102716.66;6013510;29;20231;-71
2022/08/09 01:37:51;;;;;;;1.92;1.73;;;;;;;17.40;69.96;102715.78;6010777;29;20258;-71
2022/08/09 01:41:15;;;;;;;2.53;2.35;;;;;;;17.36;70.12;102714.34;6013498;29;20509;-71
2022/08/09 01:44:40;;;;;;;2.17;1.48;;;;;;;17.27;69.79;102706.09;6009652;29;20235;-70
2022/08/09 01:48:02;;;;;;;2.03;1.90;;;;;;;17.28;69.70;102713.28;6011695;29;20234;-70
2022/08/09 01:51:24;;;;;;;1.67;1.58;;;;;;;17.19;70.55;102714.09;6008466;29;20605;-71
2022/08/09 01:54:48;;;;;;;2.70;1.58;;;;;;;17.16;70.42;102717.06;6014831;29;20258;-70
2022/08/09 01:58:10;;;;;;;2.08;1.88;;;;;;;17.10;70.63;102714.88;6012763;29;20242;-70
2022/08/09 02:01:35;;;;;;;2.90;2.20;;;;;;;17.09;71.10;102722.19;6009326;29;21351;-71
2022/08/09 02:04:59;;;;;;;5.03;2.80;;;;;;;17.17;70.98;102722.38;6011240;29;20663;-71
2022/08/09 02:08:21;;;;;;;2.35;1.52;;;;;;;17.20;70.27;102716.69;6012033;29;20250;-70
2022/08/09 02:11:42;;;;;;;1.60;1.50;;;;;;;17.04;71.08;102718.16;6012638;29;20987;-70
2022/08/09 02:15:07;;;;;;;2.92;1.83;;;;;;;17.02;71.70;102717.41;6011681;29;20231;-70
2022/08/09 02:18:32;;;;;;;2.38;1.70;;;;;;;16.97;72.08;102717.81;6009424;29;20234;-70
2022/08/09 02:22:01;;;;;;;1.95;1.75;;;;;;;16.96;71.68;102717.94;6016329;29;20230;-70
2022/08/09 02:25:27;;;;;;;2.53;2.17;;;;;;;16.91;72.24;102721.06;6013479;29;20233;-70
2022/08/09 02:28:53;;;;;;;2.80;1.90;;;;;;;16.91;72.82;102720.19;6011191;29;20246;-70
2022/08/09 02:32:18;;;;;;;2.35;2.15;;;;;;;16.79;72.06;102728.41;6009756;29;20237;-70
2022/08/09 02:35:42;;;;;;;4.18;1.88;;;;;;;16.81;72.32;102724.72;6012290;29;20239;-69
2022/08/09 02:39:06;;;;;;;2.33;1.88;;;;;;;16.82;72.68;102727.31;6010023;29;20241;-69
2022/08/09 02:42:31;;;;;;;2.30;2.15;;;;;;;16.72;72.40;102719.06;6009126;29;20234;-70
2022/08/09 02:45:54;;;;;;;1.92;1.73;;;;;;;16.68;73.20;102730.34;6013438;29;20238;-71
2022/08/09 02:49:16;;;;;;;2.03;1.60;;;;;;;16.72;72.15;102719.06;6013396;29;20231;-69
2022/08/09 02:52:42;;;;;;;1.60;1.50;;;;;;;16.61;72.99;102719.09;6012883;29;20239;-69
2022/08/09 02:56:06;;;;;;;2.35;1.85;;;;;;;16.64;72.62;102713.41;6008993;29;20826;-71
2022/08/09 02:59:27;;;;;;;4.47;2.25;;;;;;;16.72;72.20;102718.19;6010664;29;20249;-71
2022/08/09 03:02:53;;;;;;;6.15;2.60;;;;;;;16.76;72.73;102722.38;6277376;23;20228;-70
2022/08/09 03:06:15;;;;;;;8.23;6.05;;;;;;;16.76;72.40;102720.53;5981889;29;20645;-70
2022/08/09 03:09:39;;;;;;;17.00;15.57;;;;;;;16.71;72.52;102720.03;5984798;29;20513;-70
2022/08/09 03:13:01;;;;;;;6.53;5.93;;;;;;;16.67;72.70;102720.44;5991553;29;20239;-70
2022/08/09 03:16:23;;;;;;;4.28;3.90;;;;;;;16.70;72.79;102718.31;5987351;29;20243;-70
2022/08/09 03:19:44;;;;;;;5.30;4.78;;;;;;;16.64;72.79;102717.97;5982631;29;20632;-69
2022/08/09 03:23:06;;;;;;;6.00;4.55;;;;;;;16.60;72.85;102719.25;5988564;29;20246;-70
2022/08/09 03:26:29;;;;;;;2.50;2.30;;;;;;;16.65;72.68;102730.59;5990004;29;20740;-69
2022/08/09 03:29:50;;;;;;;2.63;2.42;;;;;;;16.58;72.79;102735.69;5989586;29;20238;-70
2022/08/09 03:33:13;;;;;;;6.18;2.13;;;;;;;16.57;72.82;102733.97;5991537;29;20364;-70
2022/08/09 03:36:35;;;;;;;2.88;2.65;;;;;;;16.56;73.12;102742.28;5992857;29;20243;-70
2022/08/09 03:39:56;;;;;;;2.85;2.65;;;;;;;16.56;73.02;102737.66;5991731;29;20234;-70
2022/08/09 03:43:19;;;;;;;2.58;2.38;;;;;;;16.53;72.79;102735.22;5992408;29;20326;-70
2022/08/09 03:46:40;;;;;;;4.25;2.97;;;;;;;16.45;73.71;102736.81;5987690;29;20251;-70
2022/08/09 03:50:03;;;;;;;2.60;2.28;;;;;;;16.40;73.24;102733.63;5991228;29;20243;-70
2022/08/09 03:53:24;;;;;;;7.30;3.97;;;;;;;16.36;73.66;102732.13;5990509;29;20986;-70
2022/08/09 03:56:45;;;;;;;7.83;7.10;;;;;;;16.35;73.47;102733.16;5989940;29;20713;-70
2022/08/09 04:00:10;;;;;;;8.48;7.85;;;;;;;16.45;73.45;102742.28;5988501;29;20239;-70
2022/08/09 04:03:34;;;;;;;10.35;9.45;;;;;;;16.43;73.13;102742.41;5982983;29;20252;-70
2022/08/09 04:06:56;;;;;;;10.80;10.00;;;;;;;16.40;73.38;102741.78;5974543;29;20248;-70
2022/08/09 04:10:21;;;;;;;9.63;8.88;;;;;;;16.35;73.49;102733.16;5974102;29;20263;-70
2022/08/09 04:13:42;;;;;;;6.78;5.10;;;;;;;16.41;74.00;102735.34;5970592;29;20248;-70
2022/08/09 04:17:05;;;;;;;4.78;3.78;;;;;;;16.38;73.32;102739.19;5970900;29;20239;-70
2022/08/09 04:20:26;;;;;;;3.25;2.95;;;;;;;16.35;73.80;102739.47;5973126;29;20231;-70
2022/08/09 04:23:47;;;;;;;4.60;4.15;;;;;;;16.45;73.48;102745.00;5965542;29;20630;-70
2022/08/09 04:27:08;;;;;;;4.18;3.78;;;;;;;16.42;73.38;102735.22;5971432;29;20232;-70
2022/08/09 04:30:30;;;;;;;4.18;3.85;;;;;;;16.38;73.51;102741.91;5972285;29;20244;-70
2022/08/09 04:33:52;;;;;;;3.95;3.50;;;;;;;16.49;73.02;102743.75;5971230;29;21084;-70
2022/08/09 04:37:14;;;;;;;4.07;3.60;;;;;;;16.48;73.29;102731.97;5972888;29;20687;-70
2022/08/09 04:40:50;;;;;;;3.78;3.30;;;;;;;16.59;72.98;102744.72;5967682;29;20396;-69
2022/08/09 04:44:11;;;;;;;5.47;3.40;;;;;;;16.68;72.96;102752.13;5970999;29;20270;-70
2022/08/09 04:47:32;;;;;;;3.22;2.92;;;;;;;16.69;72.67;102740.22;5968930;29;20239;-70
2022/08/09 04:50:55;;;;;;;4.88;3.85;;;;;;;16.72;72.54;102749.03;5967325;29;20231;-69
2022/08/09 04:54:16;;;;;;;3.58;3.25;;;;;;;16.80;72.57;102745.63;5972511;29;20240;-69
2022/08/09 04:57:37;;;;;;;3.58;3.28;;;;;;;16.81;72.16;102755.56;5973444;29;20236;-70
2022/08/09 05:00:58;;;;;;;12.23;11.18;;;;;;;16.84;72.81;102760.72;5967889;29;20232;-70
2022/08/09 05:04:18;;;;;;;12.98;11.68;;;;;;;16.86;72.19;102761.44;5967187;29;20239;-69
2022/08/09 05:07:41;;;;;;;9.45;8.65;;;;;;;16.98;71.98;102760.41;5968619;29;20339;-70
2022/08/09 05:11:02;;;;;;;9.70;8.50;;;;;;;17.01;72.05;102770.19;5962825;29;20232;-69
2022/08/09 05:14:24;;;;;;;7.78;6.13;;;;;;;17.01;72.27;102771.06;5968912;29;20506;-70
2022/08/09 05:17:45;;;;;;;6.03;5.38;;;;;;;17.05;72.16;102764.34;5970272;29;20240;-70
2022/08/09 05:21:07;;;;;;;5.90;4.30;;;;;;;17.05;72.06;102783.41;5968925;29;20232;-70
2022/08/09 05:24:29;;;;;;;4.55;4.03;;;;;;;17.05;71.58;102782.53;5974243;29;20865;-69
2022/08/09 05:27:51;;;;;;;4.30;3.90;;;;;;;16.99;72.33;102788.53;5971800;29;20697;-70
2022/08/09 05:31:12;;;;;;;8.48;4.05;;;;;;;17.06;71.97;102787.00;5968649;29;20236;-70
2022/08/09 05:34:32;;;;;;;4.07;3.72;;;;;;;17.17;71.97;102795.13;5971914;29;20861;-69
2022/08/09 05:37:54;;;;;;;3.20;3.00;;;;;;;17.26;71.72;102787.03;5962333;29;20331;-69
2022/08/09 05:41:17;;;;;;;5.38;3.63;;;;;;;17.36;71.68;102790.69;5966282;29;20255;-69
2022/08/09 05:44:38;;;;;;;4.10;3.70;;;;;;;17.42;71.01;102794.72;5964715;29;20240;-69
2022/08/09 05:47:59;;;;;;;5.32;3.35;;;;;;;17.53;71.03;102790.09;5955528;29;20235;-70
2022/08/09 05:51:19;;;;;;;3.78;3.47;;;;;;;17.69;70.56;102796.94;5971681;29;20339;-69
2022/08/09 05:54:40;;;;;;;4.68;3.90;;;;;;;17.95;69.19;102800.94;5957208;29;20236;-69
2022/08/09 05:58:03;;;;;;;4.55;3.83;;;;;;;18.14;68.59;102801.91;5965081;29;20239;-69
2022/08/09 06:01:24;;;;;;;6.43;4.25;;;;;;;17.92;69.93;102806.69;5966726;29;20240;-68
2022/08/09 06:04:45;;;;;;;5.38;3.92;;;;;;;17.96;69.82;102808.16;5958262;29;20540;-69
2022/08/09 06:08:06;;;;;;;9.25;4.97;;;;;;;18.04;69.37;102809.19;5963902;29;20562;-67
2022/08/09 06:11:28;;;;;;;6.07;3.58;;;;;;;18.13;69.62;102808.34;5972449;29;20514;-68
2022/08/09 06:14:50;;;;;;;6.55;4.55;;;;;;;18.22;69.91;102817.59;5956167;29;20224;-69
2022/08/09 06:18:11;;;;;;;3.65;3.35;;;;;;;18.37;69.38;102821.66;5972456;29;20228;-69
2022/08/09 06:21:32;;;;;;;4.50;4.10;;;;;;;18.44;69.07;102822.84;5968238;29;20259;-67
2022/08/09 06:24:53;;;;;;;10.50;3.17;;;;;;;18.59;68.58;102821.44;5966046;29;20239;-68
2022/08/09 06:28:14;;;;;;;4.53;3.65;;;;;;;18.72;68.53;102823.91;5962055;29;20632;-75
2022/08/09 06:31:37;;;;;;;4.30;3.13;;;;;;;19.14;66.47;102817.19;5955346;29;20247;-72
2022/08/09 06:34:58;;;;;;;4.40;3.15;;;;;;;19.32;66.10;102814.56;5980283;29;20327;-70
2022/08/09 06:38:19;;;;;;;3.65;3.35;;;;;;;19.45;65.93;102820.66;5958211;29;20235;-72
2022/08/09 06:41:40;;;;;;;5.38;3.30;;;;;;;19.57;65.50;102827.69;5968974;29;20364;-71
2022/08/09 06:45:04;;;;;;;4.07;3.30;;;;;;;19.59;65.42;102828.41;5961697;29;20240;-73
2022/08/09 06:48:26;;;;;;;8.80;8.02;;;;;;;19.70;65.05;102828.22;5967850;29;20609;-73
2022/08/09 06:51:48;;;;;;;5.03;4.50;;;;;;;19.56;65.62;102831.44;5963465;29;20240;-73
2022/08/09 06:55:09;;;;;;;4.97;3.95;;;;;;;19.61;65.56;102831.88;5960941;29;21372;-73
2022/08/09 06:58:30;;;;;;;3.08;2.78;;;;;;;19.81;65.36;102837.16;5963813;29;20240;-74
2022/08/09 07:01:51;;;;;;;4.85;3.00;;;;;;;19.98;64.86;102838.25;5954584;29;20244;-72
2022/08/09 07:05:13;;;;;;;4.65;2.90;;;;;;;20.15;64.35;102833.88;5961197;29;20259;-74
2022/08/09 07:08:35;;;;;;;3.08;2.88;;;;;;;20.33;63.66;102832.94;5961201;29;20228;-73
2022/08/09 07:11:56;;;;;;;3.97;2.35;;;;;;;20.44;63.36;102837.38;5964744;29;20232;-74
2022/08/09 07:15:17;;;;;;;4.32;3.38;;;;;;;20.67;62.68;102839.50;5967405;29;20247;-76
2022/08/09 07:18:38;;;;;;;3.55;3.33;;;;;;;20.63;63.19;102837.25;5966669;29;20236;-75
2022/08/09 07:22:00;;;;;;;3.17;2.88;;;;;;;20.73;62.97;102846.28;5965943;29;20240;-76
2022/08/09 07:25:21;;;;;;;5.43;2.67;;;;;;;20.80;62.73;102841.03;5969137;29;20240;-77
2022/08/09 07:28:43;;;;;;;4.25;2.40;;;;;;;20.85;62.43;102842.28;5969440;29;20279;-76
2022/08/09 07:32:06;;;;;;;4.18;2.60;;;;;;;20.82;62.78;102841.75;5960902;29;20247;-74
2022/08/09 07:35:27;;;;;;;2.08;1.98;;;;;;;20.92;62.51;102837.91;5985338;29;20240;-72
2022/08/09 07:38:49;;;;;;;2.92;2.72;;;;;;;21.09;62.00;102837.06;5973077;29;20620;-75
2022/08/09 07:42:10;;;;;;;7.93;2.58;;;;;;;21.36;61.33;102839.72;5964362;29;20252;-74
2022/08/09 07:45:31;;;;;;;4.05;3.75;;;;;;;21.23;61.58;102842.03;5969917;29;20247;-76
2022/08/09 07:48:53;;;;;;;2.30;2.10;;;;;;;21.44;60.88;102836.22;5971285;29;20334;-73
2022/08/09 07:52:14;;;;;;;7.00;3.03;;;;;;;21.42;61.16;102836.34;5968188;29;20287;-70
2022/08/09 07:55:36;;;;;;;2.92;2.55;;;;;;;21.45;60.94;102849.75;5966244;29;20673;-69
2022/08/09 07:58:58;;;;;;;7.30;6.60;;;;;;;21.41;61.45;102842.00;5969803;29;20228;-70
2022/08/09 08:02:23;;;;;;;6.35;3.38;;;;;;;21.50;61.14;102854.78;5960803;29;20243;-69
2022/08/09 08:05:43;;;;;;;8.82;3.58;;;;;;;21.48;61.17;102854.06;5968312;29;20323;-68
2022/08/09 08:09:04;;;;;;;2.67;2.25;;;;;;;21.06;61.95;102859.34;5972347;29;20231;-71
2022/08/09 08:12:27;;;;;;;5.53;2.53;;;;;;;21.25;61.65;102853.72;5968407;29;20636;-68
2022/08/09 08:15:48;;;;;;;3.25;2.33;;;;;;;21.53;61.62;102857.19;5968122;29;20686;-70
2022/08/09 08:19:09;;;;;;;4.38;2.45;;;;;;;21.81;60.96;102849.69;5967354;29;20354;-68
2022/08/09 08:22:30;;;;;;;2.95;2.63;;;;;;;21.91;60.46;102845.84;5972123;29;20240;-71
2022/08/09 08:25:51;;;;;;;5.03;2.45;;;;;;;22.15;59.78;102854.22;5973902;29;20556;-71
2022/08/09 08:29:16;;;;;;;4.65;2.58;;;;;;;22.23;58.82;102851.53;5971672;29;20236;-70
2022/08/09 08:32:37;;;;;;;3.25;2.22;;;;;;;22.11;59.17;102843.75;5973593;29;20235;-72
2022/08/09 08:35:58;;;;;;;2.70;2.50;;;;;;;22.35;58.51;102857.59;5966390;29;20640;-69
2022/08/09 08:39:19;;;;;;;2.65;2.28;;;;;;;22.50;58.03;102852.34;5976923;29;21161;-70
2022/08/09 08:42:41;;;;;;;6.10;2.05;;;;;;;22.48;57.96;102851.63;5954195;29;20224;-70
2022/08/09 08:46:06;;;;;;;3.35;2.42;;;;;;;22.41;57.74;102856.94;5969125;29;20236;-70
2022/08/09 08:49:27;;;;;;;2.13;2.03;;;;;;;22.40;57.73;102848.84;5968571;29;20236;-70
2022/08/09 08:52:51;;;;;;;3.20;2.20;;;;;;;22.42;57.49;102861.41;5967534;29;20259;-70
2022/08/09 08:56:11;;;;;;;4.15;1.95;;;;;;;22.31;57.83;102858.09;5964771;29;20252;-69
2022/08/09 08:59:32;;;;;;;3.03;1.95;;;;;;;22.26;58.02;102858.56;5963201;29;20240;-70
2022/08/09 09:02:58;;;;;;;2.40;1.80;;;;;;;22.11;58.32;102861.06;5966479;29;20350;-70
2022/08/09 09:06:20;;;;;;;1.80;1.55;;;;;;;22.28;58.35;102853.75;5974972;29;20255;-68
2022/08/09 09:09:46;;;;;;;2.35;1.75;;;;;;;22.40;57.39;102848.84;5970367;29;20240;-70
2022/08/09 09:13:07;;;;;;;2.55;1.73;;;;;;;22.62;56.82;102857.41;5970323;29;20235;-70
2022/08/09 09:16:30;;;;;;;2.85;2.22;;;;;;;23.28;55.26;102849.09;5969120;29;20527;-71
2022/08/09 09:19:53;;;;;;;3.28;2.13;;;;;;;23.20;54.54;102853.75;5967714;29;20247;-71
2022/08/09 09:23:14;;;;;;;5.03;2.72;;;;;;;22.83;54.92;102852.31;5970322;29;20232;-68
2022/08/09 09:26:35;;;;;;;3.50;1.77;;;;;;;23.57;54.85;102859.66;5967266;29;20527;-69
2022/08/09 09:29:56;;;;;;;2.17;1.60;;;;;;;24.13;53.69;102855.97;5966188;29;20258;-69
2022/08/09 09:33:17;;;;;;;1.60;1.50;;;;;;;24.01;52.23;102854.59;5974470;29;20251;-68
2022/08/09 09:36:40;;;;;;;5.20;1.65;;;;;;;23.80;50.85;102855.16;5958229;29;20232;-72
2022/08/09 09:40:01;;;;;;;1.80;1.40;;;;;;;24.15;50.17;102848.38;5972006;29;20244;-69
2022/08/09 09:43:22;;;;;;;3.40;2.35;;;;;;;24.56;50.36;102849.94;5953086;29;20239;-70
2022/08/09 09:46:43;;;;;;;2.00;1.63;;;;;;;24.86;49.76;102851.03;5967642;29;20267;-69
2022/08/09 09:50:06;;;;;;;2.38;1.60;;;;;;;25.10;48.44;102856.38;5965053;29;20265;-71
2022/08/09 09:53:28;;;;;;;2.70;1.30;;;;;;;24.61;49.55;102859.38;5976375;29;20236;-68
2022/08/09 09:56:51;;;;;;;2.78;2.13;;;;;;;24.84;49.79;102859.50;5967117;29;20236;-68
2022/08/09 10:00:23;;;;;;;1.73;1.30;;;;;;;25.01;47.54;102854.75;5966194;29;20321;-69
2022/08/09 10:03:45;;;;;;;2.38;1.33;;;;;;;25.34;46.96;102857.09;5978381;29;20708;-68
2022/08/09 10:07:21;;;;;;;1.48;1.35;;;;;;;25.51;46.86;102856.97;5963306;29;20248;-75
2022/08/09 10:10:44;;;;;;;2.08;1.30;;;;;;;25.35;46.73;102844.97;5963583;29;20251;-76
2022/08/09 10:14:05;;;;;;;2.00;1.08;;;;;;;25.70;46.91;102853.69;5965717;29;20232;-76
2022/08/09 10:17:33;;;;;;;1.67;1.08;;;;;;;25.57;46.18;102843.28;5959596;29;21809;-77
2022/08/09 10:20:54;;;;;;;0.98;0.80;;;;;;;25.34;48.38;102848.81;5967523;29;20414;-77
2022/08/09 10:24:16;;;;;;;2.05;1.85;;;;;;;25.35;48.04;102850.50;5962410;29;20626;-78
2022/08/09 10:27:38;;;;;;;1.60;1.30;;;;;;;25.87;47.43;102844.16;5951980;29;20246;-76
2022/08/09 10:31:00;;;;;;;1.95;1.73;;;;;;;26.53;45.81;102843.28;5953774;29;20240;-77
2022/08/09 10:34:21;;;;;;;1.42;1.25;;;;;;;26.60;44.82;102841.41;5960369;29;20332;-78
2022/08/09 10:37:44;;;;;;;7.85;7.07;;;;;;;26.13;45.56;102839.97;5970513;29;20223;-77
2022/08/09 10:41:06;;;;;;;1.90;1.80;;;;;;;25.94;45.47;102837.72;5966882;29;21521;-77
2022/08/09 10:44:30;;;;;;;2.00;1.80;;;;;;;25.85;46.45;102835.22;5970578;29;20330;-76
2022/08/09 10:48:01;;;;;;;2.38;1.45;;;;;;;26.15;46.43;102842.53;5968540;29;20232;-75
2022/08/09 10:51:35;;;;;;;2.58;1.63;;;;;;;26.01;45.96;102835.88;5975788;29;20235;-75
2022/08/09 10:55:02;;;;;;;1.88;1.20;;;;;;;25.57;45.92;102834.13;5966578;29;20250;-75
2022/08/09 10:58:30;;;;;;;2.20;1.33;;;;;;;25.49;47.88;102836.97;5974300;29;20326;-75
2022/08/09 11:01:53;;;;;;;2.88;1.13;;;;;;;25.57;47.23;102834.13;5967803;29;20347;-75
2022/08/09 11:05:16;;;;;;;2.47;1.25;;;;;;;25.85;46.55;102833.31;5969004;29;20662;-73
2022/08/09 11:08:41;;;;;;;0.82;0.82;;;;;;;26.04;45.39;102835.53;5966402;29;20896;-76
2022/08/09 11:12:11;;;;;;;0.90;0.90;;;;;;;26.20;45.88;102837.28;5970240;29;20232;-75
2022/08/09 11:15:32;;;;;;;4.50;1.20;;;;;;;25.27;46.54;102835.91;5973459;29;20232;-77
2022/08/09 11:18:54;;;;;;;1.38;0.93;;;;;;;25.56;46.36;102838.78;5960597;29;20244;-76
2022/08/09 11:22:16;;;;;;;3.28;1.17;;;;;;;25.86;46.00;102832.28;5970439;29;20236;-75
2022/08/09 11:25:43;;;;;;;2.20;1.10;;;;;;;26.34;44.56;102821.72;5967617;29;20236;-76
2022/08/09 11:29:04;;;;;;;1.45;1.08;;;;;;;25.59;44.33;102823.75;5966589;29;20231;-76
2022/08/09 11:32:42;;;;;;;3.83;1.58;;;;;;;24.89;45.71;102812.88;5971450;29;20244;-75
2022/08/09 11:36:04;;;;;;;2.63;1.45;;;;;;;25.64;45.01;102804.72;5972809;29;20536;-75
2022/08/09 11:39:25;;;;;;;2.20;1.40;;;;;;;26.59;44.00;102800.97;5979700;29;20686;-78
2022/08/09 11:42:48;;;;;;;1.20;1.10;;;;;;;27.14;42.79;102805.88;5976593;29;20258;-78
2022/08/09 11:46:09;;;;;;;3.50;1.40;;;;;;;27.39;43.18;102804.47;5971933;29;20351;-75
2022/08/09 11:50:00;;;;;;;3.67;1.30;;;;;;;27.41;40.56;102805.13;5973402;29;20243;-78
2022/08/09 11:53:24;;;;;;;3.92;3.28;;;;;;;28.20;41.24;102796.31;5972211;29;20243;-73
2022/08/09 11:56:46;;;;;;;2.03;1.25;;;;;;;28.10;40.23;102787.50;5971063;29;20263;-75
2022/08/09 12:00:09;;;;;;;2.30;1.00;;;;;;;28.38;40.38;102779.97;5987660;29;20244;-74
2022/08/09 12:03:30;;;;;;;2.47;1.13;;;;;;;28.77;39.66;102775.63;5981472;29;20236;-73
2022/08/09 12:06:53;;;;;;;1.05;0.93;;;;;;;27.94;40.57;102771.16;5970896;29;20232;-72
2022/08/09 12:10:15;;;;;;;2.58;1.40;;;;;;;27.54;42.01;102785.81;5977917;29;20262;-73
2022/08/09 12:13:39;;;;;;;1.15;1.02;;;;;;;27.18;42.47;102782.28;5974277;29;20271;-78
2022/08/09 12:17:01;;;;;;;2.13;1.17;;;;;;;26.75;43.03;102782.25;5964234;29;20343;-73
2022/08/09 12:20:25;;;;;;;1.85;1.23;;;;;;;26.59;43.92;102781.59;5970900;29;20239;-73
2022/08/09 12:23:49;;;;;;;1.92;1.00;;;;;;;26.46;44.35;102781.44;5973676;29;20251;-73
2022/08/09 12:27:19;;;;;;;2.30;1.70;;;;;;;25.65;44.32;102774.13;5968516;29;20232;-72
2022/08/09 12:30:41;;;;;;;5.15;1.17;;;;;;;28.07;40.79;102764.88;5970929;29;20247;-68
2022/08/09 12:34:02;;;;;;;1.90;1.08;;;;;;;33.83;31.03;102760.06;5970573;29;20288;-71
2022/08/09 12:37:31;;;;;;;1.60;1.50;;;;;;;32.50;31.06;102757.06;5968012;29;22804;-70
2022/08/09 12:40:52;;;;;;;1.02;1.02;;;;;;;33.21;30.87;102754.28;5967046;29;20243;-69
2022/08/09 12:44:15;;;;;;;3.88;1.13;;;;;;;35.81;28.04;102762.78;5971236;29;20310;-70
2022/08/09 12:47:36;;;;;;;2.38;1.67;;;;;;;33.82;29.19;102754.66;5967797;29;20240;-66
2022/08/09 12:50:59;;;;;;;1.23;0.90;;;;;;;31.21;33.76;102756.25;5970249;29;20236;-68
2022/08/09 12:54:20;;;;;;;1.02;0.93;;;;;;;34.28;30.40;102750.97;5972562;29;20232;-68
2022/08/09 12:57:44;;;;;;;8.05;2.25;;;;;;;36.94;26.59;102747.97;5964302;29;20240;-69
2022/08/09 13:01:19;;;;;;;1.92;1.23;;;;;;;37.84;25.48;102745.06;5971918;29;20232;-69
2022/08/09 13:04:41;;;;;;;1.27;1.10;;;;;;;37.70;25.39;102741.03;5965215;29;20240;-71
2022/08/09 13:08:14;;;;;;;1.42;0.88;;;;;;;39.12;23.22;102750.63;5958614;29;20247;-70
2022/08/09 13:11:37;;;;;;;1.10;0.82;;;;;;;39.20;23.02;102739.91;5965810;29;21274;-69
2022/08/09 13:15:05;;;;;;;5.95;5.45;;;;;;;33.82;28.93;102735.94;5967685;29;20252;-68
2022/08/09 13:18:29;;;;;;;6.55;6.07;;;;;;;33.07;30.81;102731.25;5971540;29;20558;-69
2022/08/09 13:21:50;;;;;;;1.75;1.23;;;;;;;36.00;26.52;102719.28;5961750;29;20248;-69
2022/08/09 13:25:11;;;;;;;2.83;1.40;;;;;;;36.38;25.46;102724.81;5965196;29;20224;-69
2022/08/09 13:28:32;;;;;;;2.75;1.13;;;;;;;36.13;25.09;102724.53;5968155;29;20335;-68
2022/08/09 13:32:02;;;;;;;1.60;0.80;;;;;;;36.81;25.14;102726.72;5966122;29;20243;-69
2022/08/09 13:35:27;;;;;;;1.13;0.80;;;;;;;35.08;26.83;102721.75;5966272;29;20267;-69
2022/08/09 13:38:48;;;;;;;1.67;1.25;;;;;;;36.02;26.62;102726.34;5962605;29;20263;-70
2022/08/09 13:42:12;;;;;;;1.42;0.98;;;;;;;32.15;31.49;102724.16;5966718;29;21031;-69
2022/08/09 13:45:33;;;;;;;2.53;0.82;;;;;;;30.24;34.97;102730.63;5981439;29;20233;-67
2022/08/09 13:48:54;;;;;;;2.47;1.45;;;;;;;29.04;36.93;102719.91;5963019;29;20239;-67
2022/08/09 13:52:16;;;;;;;3.80;1.05;;;;;;;28.45;38.52;102725.31;5968725;29;20535;-68
2022/08/09 13:55:37;;;;;;;1.92;0.90;;;;;;;28.02;38.51;102729.41;5975783;29;20239;-66
2022/08/09 13:58:58;;;;;;;1.42;1.08;;;;;;;28.77;38.10;102729.28;5962628;29;20366;-68
2022/08/09 14:02:19;;;;;;;4.95;1.30;;;;;;;33.05;29.88;102717.53;5967542;29;20327;-68
2022/08/09 14:05:40;;;;;;;1.58;1.45;;;;;;;34.88;28.61;102707.31;5961716;29;20224;-69
2022/08/09 14:09:02;;;;;;;0.70;0.70;;;;;;;35.23;26.99;102716.41;5959676;29;20236;-68
2022/08/09 14:12:23;;;;;;;1.10;1.00;;;;;;;35.22;27.85;102720.31;5965360;29;20236;-69
2022/08/09 14:15:44;;;;;;;0.75;0.75;;;;;;;34.31;28.79;102714.06;5966277;29;20244;-70
2022/08/09 14:19:05;;;;;;;1.30;1.00;;;;;;;34.87;28.14;102701.97;5960501;29;20768;-69
2022/08/09 14:22:26;;;;;;;1.98;1.60;;;;;;;34.07;28.88;102715.25;5972050;29;20228;-69
2022/08/09 14:25:50;;;;;;;1.08;0.80;;;;;;;33.59;28.92;102710.75;5971462;29;20647;-70
2022/08/09 14:29:13;;;;;;;1.00;1.00;;;;;;;32.92;30.10;102711.25;5969216;29;20243;-69
2022/08/09 14:32:34;;;;;;;1.25;1.15;;;;;;;32.41;30.40;102714.59;5970700;29;20230;-69
2022/08/09 14:35:55;;;;;;;1.52;1.10;;;;;;;32.30;31.83;102709.78;5968067;29;20236;-70
2022/08/09 14:39:16;;;;;;;2.95;0.93;;;;;;;31.63;32.65;102716.38;5968652;29;20611;-69
2022/08/09 14:42:39;;;;;;;1.95;1.33;;;;;;;31.58;33.07;102721.81;5972243;29;20232;-70
2022/08/09 14:46:00;;;;;;;1.30;1.20;;;;;;;31.41;31.78;102718.75;5962009;29;20232;-70
2022/08/09 14:49:21;;;;;;;2.13;1.35;;;;;;;31.59;32.98;102719.84;5958681;29;20634;-69
2022/08/09 14:52:42;;;;;;;1.63;0.77;;;;;;;31.71;31.87;102720.81;5955034;29;20634;-69
2022/08/09 14:56:05;;;;;;;5.40;3.35;;;;;;;31.37;32.87;102725.84;5964898;29;20236;-69
2022/08/09 14:59:27;;;;;;;1.60;1.50;;;;;;;31.69;32.91;102723.00;5963163;29;20259;-69
2022/08/09 15:02:48;;;;;;;1.13;1.02;;;;;;;31.38;31.60;102727.53;5954274;29;20693;-70
2022/08/09 15:06:10;;;;;;;1.17;1.02;;;;;;;31.45;33.14;102721.94;5967267;29;21306;-69
2022/08/09 15:09:31;;;;;;;1.02;0.90;;;;;;;31.51;33.23;102719.09;5958928;29;20236;-70
2022/08/09 15:12:53;;;;;;;1.55;1.45;;;;;;;31.02;32.98;102716.28;5967661;29;20236;-69
2022/08/09 15:16:15;;;;;;;2.55;1.48;;;;;;;30.63;33.15;102717.38;5964149;29;20366;-69
2022/08/09 15:19:36;;;;;;;2.83;1.23;;;;;;;29.97;33.96;102711.28;5969355;29;20231;-69
2022/08/09 15:22:58;;;;;;;3.80;1.17;;;;;;;30.32;33.63;102710.94;5967769;29;20721;-69
2022/08/09 15:26:19;;;;;;;2.72;1.52;;;;;;;31.17;33.69;102708.44;5961814;29;20231;-71
2022/08/09 15:29:42;;;;;;;3.85;3.55;;;;;;;30.77;32.18;102707.84;5966485;29;20244;-70
2022/08/09 15:33:04;;;;;;;2.92;1.80;;;;;;;29.89;34.76;102705.94;5970549;29;20231;-71
2022/08/09 15:36:25;;;;;;;1.17;1.00;;;;;;;29.45;35.64;102704.97;5956257;29;20486;-69
2022/08/09 15:39:46;;;;;;;5.93;5.38;;;;;;;28.86;35.83;102708.56;5964325;29;20495;-69
2022/08/09 15:43:07;;;;;;;1.40;1.30;;;;;;;28.50;37.00;102701.66;5963214;29;20376;-71